createdAt,value
2022-11-03T00:02:09.787Z,5.00
2022-11-03T00:04:37.542Z,4.72
2022-11-03T00:07:05.147Z,5.03
2022-11-03T00:09:32.691Z,4.70
2022-11-03T00:12:01.096Z,4.43
2022-11-03T00:14:39.284Z,4.53
2022-11-03T00:17:06.648Z,5.20
2022-11-03T00:19:33.959Z,4.80
2022-11-03T00:22:01.150Z,4.03
2022-11-03T00:24:28.234Z,4.70
2022-11-03T00:26:55.431Z,4.05
2022-11-03T00:29:22.735Z,4.30
2022-11-03T00:31:49.892Z,4.15
2022-11-03T00:34:17.430Z,4.18
2022-11-03T00:36:45.518Z,4.32
2022-11-03T00:39:13.356Z,4.53
2022-11-03T00:41:41.225Z,4.13
2022-11-03T00:44:10.659Z,3.85
2022-11-03T00:46:38.282Z,3.58
2022-11-03T00:49:06.260Z,4.00
2022-11-03T00:51:36.817Z,3.67
2022-11-03T00:54:05.858Z,4.07
2022-11-03T00:56:41.911Z,4.35
2022-11-03T00:59:10.229Z,3.97
2022-11-03T01:01:47.040Z,3.65
2022-11-03T01:04:36.006Z,3.55
2022-11-03T01:07:05.191Z,3.55
2022-11-03T01:09:40.470Z,3.97
2022-11-03T01:12:15.042Z,3.25
2022-11-03T01:14:50.394Z,4.45
2022-11-03T01:17:24.128Z,4.10
2022-11-03T01:19:52.267Z,4.07
2022-11-03T01:22:22.143Z,4.07
2022-11-03T01:24:49.603Z,3.47
2022-11-03T01:27:19.828Z,4.03
2022-11-03T01:29:47.074Z,3.35
2022-11-03T01:32:14.572Z,3.13
2022-11-03T01:34:42.171Z,3.33
2022-11-03T01:37:09.370Z,3.45
2022-11-03T01:39:36.518Z,3.30
2022-11-03T01:42:04.089Z,3.50
2022-11-03T01:44:36.494Z,2.92
2022-11-03T01:47:18.975Z,3.65
2022-11-03T01:50:02.342Z,3.13
2022-11-03T01:52:43.158Z,2.65
2022-11-03T01:55:23.694Z,3.30
2022-11-03T01:58:05.977Z,3.20
2022-11-03T02:00:34.894Z,3.10
2022-11-03T02:03:02.604Z,3.20
2022-11-03T02:05:30.636Z,3.05
2022-11-03T02:08:16.212Z,2.88
2022-11-03T02:10:46.653Z,3.45
2022-11-03T02:13:25.121Z,3.08
2022-11-03T02:15:59.393Z,3.35
2022-11-03T02:23:23.926Z,3.80
2022-11-03T02:25:57.986Z,3.22
2022-11-03T02:28:33.405Z,3.08
2022-11-03T02:31:41.448Z,3.05
2022-11-03T02:34:21.374Z,2.88
2022-11-03T02:37:11.236Z,3.50
2022-11-03T02:39:51.516Z,3.50
2022-11-03T02:42:22.008Z,3.30
2022-11-03T02:44:49.806Z,4.63
2022-11-03T02:47:19.181Z,3.08
2022-11-03T02:49:49.959Z,2.92
2022-11-03T02:52:43.879Z,3.08
2022-11-03T02:55:38.959Z,3.47
2022-11-03T02:58:13.001Z,3.40
2022-11-03T03:01:01.784Z,3.28
2022-11-03T03:03:40.765Z,3.25
2022-11-03T03:06:19.515Z,3.65
2022-11-03T03:08:54.073Z,3.55
2022-11-03T03:11:39.859Z,3.33
2022-11-03T03:14:20.311Z,3.88
2022-11-03T03:17:00.990Z,3.90
2022-11-03T03:19:38.360Z,3.60
2022-11-03T03:22:26.873Z,3.58
2022-11-03T03:25:18.980Z,3.42
2022-11-03T03:27:55.646Z,3.43
2022-11-03T03:30:23.415Z,3.80
2022-11-03T03:32:52.904Z,3.90
2022-11-03T03:35:28.220Z,3.22
2022-11-03T03:38:03.444Z,3.95
2022-11-03T03:40:44.165Z,3.30
2022-11-03T03:43:14.583Z,4.13
2022-11-03T03:45:46.032Z,3.58
2022-11-03T03:48:14.321Z,3.90
2022-11-03T03:50:44.555Z,4.10
2022-11-03T03:53:19.799Z,4.40
2022-11-03T03:55:51.036Z,3.20
2022-11-03T03:58:18.706Z,3.50
2022-11-03T04:00:46.529Z,3.38
2022-11-03T04:03:22.761Z,3.70
2022-11-03T04:05:50.759Z,4.43
2022-11-03T04:08:18.660Z,5.38
2022-11-03T04:11:06.600Z,4.35
2022-11-03T04:13:52.839Z,5.15
2022-11-03T04:16:38.997Z,4.72
2022-11-03T04:19:24.637Z,3.85
2022-11-03T04:22:10.615Z,4.53
2022-11-03T04:24:37.918Z,4.15
2022-11-03T04:27:34.255Z,4.88
2022-11-03T04:30:16.373Z,4.80
2022-11-03T04:32:46.494Z,4.22
2022-11-03T04:35:23.075Z,4.05
2022-11-03T04:38:00.665Z,4.15
2022-11-03T04:40:28.922Z,4.45
2022-11-03T04:42:56.411Z,5.75
2022-11-03T04:46:14.110Z,4.72
2022-11-03T04:48:42.326Z,4.45
2022-11-03T04:51:47.325Z,4.80
2022-11-03T04:54:42.841Z,4.40
2022-11-03T04:58:02.969Z,4.53
2022-11-03T05:00:42.349Z,5.72
2022-11-03T05:06:55.841Z,6.28
2022-11-03T05:09:32.446Z,5.32
2022-11-03T05:11:59.586Z,5.55
2022-11-03T05:14:32.236Z,5.82
2022-11-03T05:17:02.451Z,5.47
2022-11-03T05:19:40.982Z,4.93
2022-11-03T05:22:19.983Z,5.68
2022-11-03T05:24:47.289Z,4.97
2022-11-03T05:27:22.127Z,5.18
2022-11-03T05:29:55.184Z,5.32
2022-11-03T05:32:30.137Z,4.70
2022-11-03T05:34:59.198Z,4.55
2022-11-03T05:37:35.907Z,5.05
2022-11-03T05:40:25.677Z,5.85
2022-11-03T05:43:01.646Z,5.03
2022-11-03T05:45:56.775Z,4.78
2022-11-03T05:49:02.311Z,5.90
2022-11-03T05:51:44.448Z,6.15
2022-11-03T05:54:34.158Z,5.25
2022-11-03T05:57:01.626Z,5.43
2022-11-03T05:59:30.416Z,5.35
2022-11-03T06:02:01.397Z,5.15
2022-11-03T06:04:40.532Z,4.68
2022-11-03T06:11:58.199Z,5.93
2022-11-03T06:14:41.595Z,6.70
2022-11-03T06:17:19.613Z,6.28
2022-11-03T06:20:00.286Z,6.82
2022-11-03T06:22:46.140Z,6.63
2022-11-03T06:25:26.664Z,8.05
2022-11-03T06:27:57.512Z,8.32
2022-11-03T06:30:32.397Z,6.20
2022-11-03T06:33:31.074Z,7.78
2022-11-03T06:36:23.080Z,7.40
2022-11-03T06:39:00.222Z,8.13
2022-11-03T06:41:32.313Z,7.93
2022-11-03T06:52:50.780Z,7.80
2022-11-03T06:55:31.215Z,7.50
2022-11-03T06:58:30.768Z,7.57
2022-11-03T07:01:08.397Z,7.57
2022-11-03T07:04:13.241Z,7.65
2022-11-03T07:06:50.367Z,7.68
2022-11-03T07:09:28.282Z,7.35
2022-11-03T07:12:01.684Z,7.65
2022-11-03T07:14:35.757Z,6.85
2022-11-03T07:17:07.228Z,7.28
2022-11-03T07:19:41.958Z,6.90
2022-11-03T07:22:29.810Z,6.68
2022-11-03T07:25:14.186Z,6.93
2022-11-03T07:27:42.017Z,6.38
2022-11-03T07:30:30.082Z,7.55
2022-11-03T07:33:24.901Z,6.53
2022-11-03T07:39:21.441Z,7.10
2022-11-03T07:41:57.595Z,6.47
2022-11-03T07:44:36.008Z,6.72
2022-11-03T07:47:27.864Z,7.45
2022-11-03T07:49:56.607Z,6.68
2022-11-03T07:52:27.015Z,6.38
2022-11-03T07:54:59.395Z,6.78
2022-11-03T07:57:29.514Z,5.80
2022-11-03T08:00:10.227Z,5.90
2022-11-03T08:02:57.485Z,5.95
2022-11-03T08:05:24.699Z,6.15
2022-11-03T08:07:51.795Z,5.80
2022-11-03T08:10:19.016Z,5.43
2022-11-03T08:13:05.798Z,6.13
2022-11-03T08:16:18.397Z,5.43
2022-11-03T08:35:31.412Z,5.85
2022-11-03T08:38:02.425Z,6.07
2022-11-03T08:40:31.654Z,5.63
2022-11-03T08:47:53.170Z,5.95
2022-11-03T08:50:37.456Z,5.25
2022-11-03T08:56:10.485Z,5.20
2022-11-03T08:58:40.046Z,5.50
2022-11-03T09:01:08.157Z,4.38
2022-11-03T09:03:35.771Z,5.25
2022-11-03T09:06:03.200Z,4.93
2022-11-03T09:12:07.430Z,4.40
2022-11-03T09:14:40.657Z,3.95
2022-11-03T09:17:13.931Z,4.07
2022-11-03T09:19:41.120Z,3.92
2022-11-03T09:22:14.175Z,4.43
2022-11-03T09:24:50.618Z,4.20
2022-11-03T09:27:18.134Z,3.47
2022-11-03T09:30:11.084Z,3.72
2022-11-03T09:32:34.485Z,3.45
2022-11-03T09:35:02.021Z,3.45
2022-11-03T09:37:29.696Z,3.75
2022-11-03T09:44:03.456Z,3.33
2022-11-03T10:32:55.701Z,1.60
2022-11-03T10:35:35.681Z,1.85
2022-11-03T10:38:29.323Z,1.40
2022-11-03T10:41:21.355Z,1.35
2022-11-03T10:44:16.040Z,1.48
2022-11-03T10:47:04.519Z,1.20
2022-11-03T10:49:39.264Z,1.30
2022-11-03T10:52:24.660Z,1.35
2022-11-03T10:54:56.392Z,1.60
2022-11-03T10:57:28.583Z,1.23
2022-11-03T10:59:56.747Z,1.30
2022-11-03T11:02:33.186Z,1.63
2022-11-03T11:05:16.253Z,1.50
2022-11-03T11:07:45.400Z,1.77
2022-11-03T11:10:18.862Z,2.17
2022-11-03T11:13:18.916Z,2.15
2022-11-03T11:15:54.161Z,1.92
2022-11-03T12:02:24.522Z,1.70
2022-11-03T12:05:03.799Z,2.10
2022-11-03T12:07:37.580Z,2.20
2022-11-03T12:10:10.400Z,2.30
2022-11-03T12:12:37.643Z,2.42
2022-11-03T12:15:05.368Z,2.63
2022-11-03T12:17:33.663Z,2.72
2022-11-03T12:20:00.881Z,1.85
2022-11-03T12:22:48.350Z,2.10
2022-11-03T12:25:46.601Z,2.25
2022-11-03T12:28:35.265Z,2.63
2022-11-03T12:31:04.080Z,2.00
2022-11-03T12:33:31.885Z,2.75
2022-11-03T12:35:59.397Z,2.40
2022-11-03T12:38:29.980Z,1.63
2022-11-03T12:40:57.584Z,2.67
2022-11-03T12:43:24.872Z,1.50
2022-11-03T12:45:53.773Z,2.70
2022-11-03T12:48:21.282Z,2.08
2022-11-03T12:50:48.746Z,1.73
2022-11-03T12:53:16.075Z,1.90
2022-11-03T14:12:54.326Z,3.10
2022-11-03T14:19:41.239Z,3.20
2022-11-03T14:22:11.309Z,2.85
2022-11-03T14:24:47.663Z,3.58
2022-11-03T14:27:19.448Z,3.63
2022-11-03T14:29:55.647Z,3.40
2022-11-03T14:35:29.823Z,3.60
2022-11-03T14:38:08.572Z,3.80
2022-11-03T14:41:25.429Z,3.60
2022-11-03T15:08:56.339Z,4.85
2022-11-03T15:11:25.075Z,5.28
2022-11-03T15:14:06.351Z,4.57
2022-11-03T15:26:59.674Z,5.43
2022-11-03T15:29:27.946Z,4.97
2022-11-03T15:31:55.190Z,5.75
2022-11-03T15:34:22.484Z,5.32
2022-11-03T15:36:49.732Z,5.30
2022-11-03T15:39:17.976Z,5.97
2022-11-03T16:10:33.620Z,7.28
2022-11-03T16:28:19.706Z,7.20
2022-11-03T16:30:53.797Z,7.65
2022-11-03T16:33:22.289Z,6.82
2022-11-03T16:35:49.915Z,6.85
2022-11-03T16:38:17.465Z,6.05
2022-11-03T16:40:45.151Z,7.15
2022-11-03T16:43:12.932Z,6.78
2022-11-03T16:45:40.157Z,7.05
2022-11-03T16:48:07.974Z,7.68
2022-11-03T16:50:35.450Z,7.60
2022-11-03T16:53:03.376Z,6.85
2022-11-03T16:55:30.912Z,7.18
2022-11-03T16:57:58.275Z,7.38
2022-11-03T17:00:26.578Z,6.60
2022-11-03T17:02:54.292Z,6.65
2022-11-03T17:05:22.552Z,7.13
2022-11-03T17:07:53.522Z,6.93
2022-11-03T17:10:22.661Z,7.28
2022-11-03T17:12:50.627Z,7.53
2022-11-03T17:15:18.306Z,7.25
2022-11-03T17:19:26.561Z,6.40
2022-11-03T17:21:54.483Z,5.78
2022-11-03T17:24:21.830Z,6.90
2022-11-03T17:27:05.039Z,6.35
2022-11-03T17:29:41.865Z,6.93
2022-11-03T17:32:44.639Z,6.45
2022-11-03T17:35:39.309Z,7.10
2022-11-03T17:38:13.956Z,5.78
2022-11-03T17:40:47.767Z,6.38
2022-11-03T17:43:31.547Z,6.35
2022-11-03T17:46:00.892Z,7.22
2022-11-03T17:48:37.096Z,5.88
2022-11-03T17:51:18.301Z,6.65
2022-11-03T17:53:47.566Z,7.18
2022-11-03T17:56:30.742Z,7.45
2022-11-03T17:59:17.560Z,7.68
2022-11-03T18:01:56.759Z,8.68
2022-11-03T18:05:30.670Z,9.38
2022-11-03T18:08:11.759Z,7.85
2022-11-03T18:10:46.819Z,7.78
2022-11-03T18:14:02.866Z,8.02
2022-11-03T18:16:32.013Z,7.78
2022-11-03T18:19:00.308Z,7.65
2022-11-03T18:21:29.902Z,7.85
2022-11-03T18:23:58.962Z,7.45
2022-11-03T18:34:20.681Z,7.75
2022-11-03T18:36:49.105Z,9.40
2022-11-03T18:39:27.862Z,8.30
2022-11-03T18:41:55.674Z,9.00
2022-11-03T18:44:29.014Z,9.07
2022-11-03T18:46:58.232Z,8.48
2022-11-03T18:49:27.643Z,9.02
2022-11-03T18:52:03.483Z,8.55
2022-11-03T18:54:34.310Z,8.65
2022-11-03T18:57:02.686Z,8.55
2022-11-03T18:59:37.111Z,8.73
2022-11-03T19:02:20.526Z,9.50
2022-11-03T19:04:48.758Z,9.32
2022-11-03T19:07:31.501Z,8.50
2022-11-03T19:10:00.181Z,9.20
2022-11-03T19:12:27.508Z,9.18
2022-11-03T19:14:56.039Z,9.90
2022-11-03T19:17:25.666Z,9.77
2022-11-03T19:19:53.815Z,9.18
2022-11-03T19:22:23.453Z,9.55
2022-11-03T19:24:51.106Z,9.35
2022-11-03T19:27:31.631Z,9.40
2022-11-03T19:30:02.291Z,9.98
2022-11-03T19:32:36.945Z,11.60
2022-11-03T19:35:17.724Z,9.18
2022-11-03T19:37:48.750Z,9.15
2022-11-03T19:40:19.907Z,9.98
2022-11-03T19:42:50.192Z,9.63
2022-11-03T19:45:20.637Z,9.52
2022-11-03T19:50:48.665Z,10.57
2022-11-03T19:53:26.244Z,11.02
2022-11-03T19:55:54.896Z,11.05
2022-11-03T19:58:27.644Z,12.13
2022-11-03T20:03:24.544Z,11.13
2022-11-03T20:05:56.523Z,11.77
2022-11-03T20:08:27.979Z,12.57
2022-11-03T20:10:55.888Z,12.38
2022-11-03T20:13:32.176Z,13.07
2022-11-03T20:16:01.318Z,12.55
2022-11-03T20:18:29.266Z,14.32
2022-11-03T20:20:56.849Z,12.18
2022-11-03T20:23:33.109Z,13.43
2022-11-03T20:26:02.297Z,12.45
2022-11-03T20:28:32.373Z,13.10
2022-11-03T20:31:02.132Z,12.43
2022-11-03T20:33:31.194Z,13.35
2022-11-03T20:35:59.124Z,12.93
2022-11-03T20:38:27.996Z,12.38
2022-11-03T20:41:00.494Z,12.52
2022-11-03T20:46:04.160Z,11.95
2022-11-03T20:48:31.289Z,11.68
2022-11-03T20:50:58.528Z,12.57
2022-11-03T20:53:26.571Z,11.93
2022-11-03T20:55:54.216Z,10.88
2022-11-03T20:58:22.139Z,11.90
2022-11-03T21:00:50.040Z,11.75
2022-11-03T21:03:45.139Z,11.52
2022-11-03T21:06:18.298Z,12.20
2022-11-03T21:08:47.746Z,11.63
2022-11-03T21:11:27.067Z,10.77
2022-11-03T21:14:02.885Z,11.50
2022-11-03T21:16:49.325Z,12.15
2022-11-03T21:19:45.202Z,12.88
2022-11-03T21:22:45.742Z,11.63
2022-11-03T21:25:18.960Z,11.00
2022-11-03T21:27:47.456Z,11.93
2022-11-03T21:30:16.929Z,13.40
2022-11-03T21:32:44.235Z,13.57
2022-11-03T21:35:18.353Z,12.40
2022-11-03T21:37:45.775Z,11.77
2022-11-03T21:40:13.518Z,12.38
2022-11-03T21:42:59.516Z,13.00
2022-11-03T21:45:26.847Z,12.10
2022-11-03T21:48:14.309Z,12.13
2022-11-03T21:50:43.324Z,12.70
2022-11-03T21:53:11.710Z,12.88
2022-11-03T21:55:40.066Z,12.93
2022-11-03T21:58:07.973Z,12.43
2022-11-03T22:00:36.676Z,13.32
2022-11-03T22:03:04.020Z,13.25
2022-11-03T22:05:31.180Z,13.65
2022-11-03T22:07:58.465Z,11.95
2022-11-03T22:10:25.859Z,13.20
2022-11-03T22:12:53.209Z,13.75
2022-11-03T22:15:40.734Z,13.13
2022-11-03T22:19:05.776Z,12.13
2022-11-03T22:21:52.401Z,13.13
2022-11-03T22:24:38.034Z,12.43
2022-11-03T22:27:05.336Z,12.50
2022-11-03T22:32:50.963Z,12.35
2022-11-03T22:40:09.413Z,10.30
2022-11-03T22:42:56.769Z,11.15
2022-11-03T22:45:42.655Z,10.57
2022-11-03T22:48:10.995Z,11.00
2022-11-03T22:50:38.960Z,11.60
2022-11-03T22:53:42.699Z,10.98
2022-11-03T22:56:10.295Z,10.60
2022-11-03T22:58:37.610Z,10.77
2022-11-03T23:01:10.778Z,9.90
2022-11-03T23:03:40.563Z,10.27
2022-11-03T23:06:19.443Z,10.10
2022-11-03T23:08:48.836Z,9.75
2022-11-03T23:11:21.085Z,10.43
2022-11-03T23:16:32.856Z,9.40
2022-11-03T23:19:20.073Z,8.95
2022-11-03T23:21:51.045Z,9.60
2022-11-03T23:24:42.262Z,10.20
2022-11-03T23:27:14.161Z,10.02
2022-11-03T23:29:44.086Z,9.40
2022-11-03T23:32:11.361Z,9.85
2022-11-03T23:34:39.878Z,9.73
2022-11-03T23:37:07.115Z,8.80
2022-11-03T23:39:34.259Z,9.40
2022-11-03T23:42:01.796Z,8.38
2022-11-03T23:45:03.201Z,9.18
2022-11-03T23:47:49.578Z,9.23
2022-11-03T23:50:17.837Z,8.30
2022-11-03T23:52:45.048Z,8.18
2022-11-03T23:55:12.317Z,7.55
2022-11-03T23:57:57.893Z,7.72
